createdAt,value
2022-08-02T00:00:29.026Z,6.80
2022-08-02T00:01:29.037Z,10.50
2022-08-02T00:02:28.996Z,8.80
2022-08-02T00:03:28.987Z,11.70
2022-08-02T00:04:28.979Z,8.80
2022-08-02T00:05:28.957Z,9.00
2022-08-02T00:06:28.961Z,6.90
2022-08-02T00:07:28.967Z,8.80
2022-08-02T00:08:28.948Z,7.80
2022-08-02T00:09:28.926Z,5.10
2022-08-02T00:10:28.914Z,6.50
2022-08-02T00:11:28.901Z,5.20
2022-08-02T00:12:28.886Z,6.10
2022-08-02T00:13:28.883Z,6.70
2022-08-02T00:14:28.876Z,7.60
2022-08-02T00:15:28.850Z,10.40
2022-08-02T00:16:38.233Z,9.70
2022-08-02T00:17:28.847Z,8.30
2022-08-02T00:18:28.835Z,6.70
2022-08-02T00:19:28.812Z,7.60
2022-08-02T00:20:28.833Z,8.40
2022-08-02T00:21:28.807Z,12.80
2022-08-02T00:22:28.788Z,10.90
2022-08-02T00:23:28.808Z,8.70
2022-08-02T00:24:31.413Z,7.60
2022-08-02T00:25:28.759Z,9.30
2022-08-02T00:26:28.748Z,8.60
2022-08-02T00:27:28.725Z,9.70
2022-08-02T00:28:28.741Z,7.80
2022-08-02T00:29:28.731Z,8.50
2022-08-02T00:30:28.700Z,10.30
2022-08-02T00:31:28.684Z,12.00
2022-08-02T00:32:28.686Z,7.90
2022-08-02T00:34:27.638Z,7.60
2022-08-02T00:34:37.715Z,11.10
2022-08-02T00:35:28.645Z,7.30
2022-08-02T00:36:28.659Z,9.70
2022-08-02T00:37:28.635Z,9.00
2022-08-02T00:38:28.616Z,8.80
2022-08-02T00:39:34.415Z,7.50
2022-08-02T00:40:28.617Z,5.50
2022-08-02T00:41:28.593Z,7.70
2022-08-02T00:42:28.576Z,9.90
2022-08-02T00:43:28.562Z,9.50
2022-08-02T00:44:28.587Z,8.20
2022-08-02T00:46:02.189Z,6.30
2022-08-02T00:46:28.545Z,5.80
2022-08-02T00:47:28.525Z,10.60
2022-08-02T00:48:28.509Z,9.30
2022-08-02T00:49:28.604Z,9.40
2022-08-02T00:50:28.518Z,9.10
2022-08-02T00:51:28.484Z,9.10
2022-08-02T00:52:28.472Z,8.00
2022-08-02T00:53:28.469Z,10.60
2022-08-02T00:54:28.449Z,11.10
2022-08-02T00:55:31.305Z,8.90
2022-08-02T00:56:28.425Z,9.10
2022-08-02T00:57:28.429Z,10.80
2022-08-02T00:58:28.415Z,8.40
2022-08-02T00:59:28.426Z,10.80
2022-08-02T01:00:29.964Z,10.60
2022-08-02T01:01:28.449Z,8.50
2022-08-02T01:02:28.379Z,6.20
2022-08-02T01:03:28.365Z,8.90
2022-08-02T01:04:29.933Z,7.10
2022-08-02T01:05:28.375Z,7.50
2022-08-02T01:06:28.378Z,7.20
2022-08-02T01:07:28.326Z,8.30
2022-08-02T01:08:29.424Z,10.10
2022-08-02T01:09:28.340Z,10.00
2022-08-02T01:10:28.287Z,8.40
2022-08-02T01:11:28.289Z,7.70
2022-08-02T01:12:28.266Z,7.20
2022-08-02T01:13:28.293Z,8.20
2022-08-02T01:14:28.271Z,8.20
2022-08-02T01:15:36.114Z,12.40
2022-08-02T01:16:28.233Z,9.10
2022-08-02T01:17:28.227Z,7.20
2022-08-02T01:18:28.207Z,10.30
2022-08-02T01:19:28.243Z,8.50
2022-08-02T01:20:28.191Z,7.40
2022-08-02T01:21:28.202Z,10.70
2022-08-02T01:22:58.423Z,9.60
2022-08-02T01:23:28.171Z,9.60
2022-08-02T01:24:28.163Z,9.00
2022-08-02T01:25:28.138Z,6.40
2022-08-02T01:26:28.138Z,10.50
2022-08-02T01:27:28.128Z,9.80
2022-08-02T01:28:28.110Z,12.70
2022-08-02T01:29:28.110Z,7.40
2022-08-02T01:30:28.094Z,11.20
2022-08-02T01:31:28.085Z,11.10
2022-08-02T01:32:28.079Z,6.50
2022-08-02T01:33:28.058Z,5.90
2022-08-02T01:34:28.038Z,6.60
2022-08-02T01:35:28.056Z,9.20
2022-08-02T01:36:28.028Z,13.80
2022-08-02T01:37:28.067Z,8.80
2022-08-02T01:38:28.014Z,7.00
2022-08-02T01:39:32.595Z,10.10
2022-08-02T01:40:27.989Z,9.20
2022-08-02T01:41:27.978Z,8.50
2022-08-02T01:42:27.955Z,7.90
2022-08-02T01:43:27.968Z,12.50
2022-08-02T01:44:27.943Z,10.10
2022-08-02T01:45:27.951Z,8.50
2022-08-02T01:46:27.923Z,8.70
2022-08-02T01:47:27.921Z,11.50
2022-08-02T01:48:27.904Z,8.20
2022-08-02T01:49:27.963Z,10.10
2022-08-02T01:50:27.891Z,9.00
2022-08-02T01:51:27.874Z,8.20
2022-08-02T01:52:27.871Z,9.10
2022-08-02T01:53:27.869Z,8.80
2022-08-02T01:54:27.861Z,10.20
2022-08-02T01:55:35.306Z,9.80
2022-08-02T01:56:27.820Z,18.60
2022-08-02T01:57:27.836Z,8.90
2022-08-02T01:58:27.796Z,10.30
2022-08-02T01:59:27.820Z,7.50
2022-08-02T02:00:27.771Z,9.40
2022-08-02T02:01:27.814Z,8.30
2022-08-02T02:02:31.574Z,11.10
2022-08-02T02:03:27.756Z,12.40
2022-08-02T02:04:27.732Z,7.70
2022-08-02T02:05:27.741Z,9.00
2022-08-02T02:06:27.741Z,8.20
2022-08-02T02:07:27.720Z,8.80
2022-08-02T02:08:27.929Z,11.60
2022-08-02T02:09:27.698Z,9.10
2022-08-02T02:10:27.690Z,9.40
2022-08-02T02:12:09.766Z,7.40
2022-08-02T02:12:27.680Z,8.80
2022-08-02T02:13:33.543Z,10.10
2022-08-02T02:14:27.641Z,11.20
2022-08-02T02:15:27.628Z,9.50
2022-08-02T02:16:27.613Z,8.80
2022-08-02T02:18:11.748Z,10.00
2022-08-02T02:18:27.594Z,8.70
2022-08-02T02:19:27.581Z,6.70
2022-08-02T02:20:27.564Z,6.50
2022-08-02T02:21:27.578Z,7.50
2022-08-02T02:22:27.559Z,8.90
2022-08-02T02:23:27.549Z,9.60
2022-08-02T02:24:27.533Z,8.90
2022-08-02T02:25:27.560Z,8.10
2022-08-02T02:26:31.488Z,6.60
2022-08-02T02:27:27.521Z,8.20
2022-08-02T02:28:27.514Z,9.40
2022-08-02T02:29:27.510Z,8.50
2022-08-02T02:30:27.495Z,10.10
2022-08-02T02:31:27.482Z,11.00
2022-08-02T02:32:27.454Z,9.30
2022-08-02T02:33:29.489Z,11.80
2022-08-02T02:34:27.430Z,7.90
2022-08-02T02:35:27.441Z,7.10
2022-08-02T02:36:27.418Z,7.50
2022-08-02T02:37:27.427Z,10.90
2022-08-02T02:38:27.387Z,7.10
2022-08-02T02:39:27.386Z,6.50
2022-08-02T02:40:27.384Z,8.40
2022-08-02T02:41:27.367Z,9.00
2022-08-02T02:42:27.375Z,8.30
2022-08-02T02:43:27.351Z,9.60
2022-08-02T02:44:27.323Z,9.50
2022-08-02T02:45:27.327Z,8.40
2022-08-02T02:46:27.305Z,6.20
2022-08-02T02:47:40.940Z,11.30
2022-08-02T02:48:27.286Z,11.60
2022-08-02T02:49:27.330Z,8.60
2022-08-02T02:50:27.273Z,7.90
2022-08-02T02:51:27.258Z,8.80
2022-08-02T02:52:27.266Z,8.20
2022-08-02T02:53:27.252Z,12.50
2022-08-02T02:54:33.025Z,13.20
2022-08-02T02:55:27.224Z,11.20
2022-08-02T02:56:27.195Z,13.00
2022-08-02T02:57:27.212Z,7.30
2022-08-02T02:58:29.049Z,7.20
2022-08-02T02:59:27.191Z,9.20
2022-08-02T03:00:27.163Z,12.00
2022-08-02T03:01:55.991Z,11.30
2022-08-02T03:02:27.165Z,8.90
2022-08-02T03:03:27.152Z,10.70
2022-08-02T03:04:27.127Z,8.50
2022-08-02T03:05:27.130Z,9.00
2022-08-02T03:06:27.103Z,9.50
2022-08-02T03:07:27.153Z,8.00
2022-08-02T03:08:27.084Z,11.50
2022-08-02T03:09:27.029Z,9.60
2022-08-02T03:10:27.067Z,7.00
2022-08-02T03:11:27.059Z,6.80
2022-08-02T03:12:31.369Z,8.00
2022-08-02T03:13:33.114Z,9.00
2022-08-02T03:14:26.981Z,11.00
2022-08-02T03:15:26.961Z,10.50
2022-08-02T03:16:26.944Z,11.30
2022-08-02T03:17:26.961Z,10.70
2022-08-02T03:18:26.954Z,9.70
2022-08-02T03:19:33.329Z,10.30
2022-08-02T03:20:26.920Z,10.90
2022-08-02T03:21:26.905Z,9.40
2022-08-02T03:22:26.883Z,9.90
2022-08-02T03:23:26.888Z,7.90
2022-08-02T03:24:27.945Z,7.90
2022-08-02T03:25:26.869Z,10.00
2022-08-02T03:26:26.849Z,10.00
2022-08-02T03:27:26.843Z,11.20
2022-08-02T03:28:26.830Z,9.20
2022-08-02T03:29:28.069Z,9.10
2022-08-02T03:30:26.797Z,9.00
2022-08-02T03:31:26.805Z,11.10
2022-08-02T03:32:26.791Z,8.50
2022-08-02T03:33:26.798Z,7.60
2022-08-02T03:34:26.761Z,8.30
2022-08-02T03:35:26.762Z,7.50
2022-08-02T03:36:26.745Z,8.70
2022-08-02T03:37:26.734Z,8.00
2022-08-02T03:38:29.149Z,8.50
2022-08-02T03:39:26.727Z,9.10
2022-08-02T03:40:26.743Z,8.50
2022-08-02T03:41:26.702Z,9.60
2022-08-02T03:42:26.678Z,8.80
2022-08-02T03:43:28.588Z,8.10
2022-08-02T03:44:26.688Z,10.70
2022-08-02T03:45:26.659Z,5.60
2022-08-02T03:46:26.636Z,8.20
2022-08-02T03:47:26.666Z,8.50
2022-08-02T03:48:34.115Z,8.20
2022-08-02T03:49:26.698Z,10.10
2022-08-02T03:50:26.605Z,8.80
2022-08-02T03:51:26.608Z,11.20
2022-08-02T03:52:26.579Z,11.10
2022-08-02T03:53:26.575Z,12.50
2022-08-02T03:54:32.900Z,9.30
2022-08-02T03:55:26.561Z,10.20
2022-08-02T03:56:26.536Z,10.40
2022-08-02T03:57:26.544Z,8.60
2022-08-02T03:58:26.541Z,8.20
2022-08-02T03:59:26.514Z,7.50
2022-08-02T04:00:26.502Z,9.80
2022-08-02T04:01:26.613Z,9.00
2022-08-02T04:02:26.486Z,12.40
2022-08-02T04:03:26.475Z,11.10
2022-08-02T04:04:26.475Z,13.30
2022-08-02T04:05:26.471Z,10.10
2022-08-02T04:06:27.227Z,10.30
2022-08-02T04:08:32.625Z,11.70
2022-08-02T04:08:41.119Z,9.80
2022-08-02T04:09:26.420Z,16.50
2022-08-02T04:10:26.440Z,11.30
2022-08-02T04:11:26.415Z,9.10
2022-08-02T04:12:26.376Z,10.20
2022-08-02T04:13:31.265Z,8.50
2022-08-02T04:14:26.358Z,11.80
2022-08-02T04:15:26.353Z,10.40
2022-08-02T04:16:26.340Z,8.10
2022-08-02T04:17:26.337Z,7.90
2022-08-02T04:18:26.314Z,11.20
2022-08-02T04:19:26.309Z,11.50
2022-08-02T04:20:26.296Z,13.90
2022-08-02T04:21:26.302Z,8.30
2022-08-02T04:22:26.281Z,11.80
2022-08-02T04:23:26.283Z,10.70
2022-08-02T04:24:26.258Z,12.10
2022-08-02T04:25:35.696Z,9.50
2022-08-02T04:26:28.388Z,7.20
2022-08-02T04:27:51.255Z,9.80
2022-08-02T04:28:27.775Z,8.70
2022-08-02T04:29:26.208Z,12.20
2022-08-02T04:30:26.185Z,10.70
2022-08-02T04:31:26.202Z,9.90
2022-08-02T04:32:26.174Z,10.20
2022-08-02T04:33:26.165Z,11.30
2022-08-02T04:34:26.145Z,9.70
2022-08-02T04:35:26.154Z,10.90
2022-08-02T04:36:31.227Z,11.20
2022-08-02T04:37:26.146Z,12.10
2022-08-02T04:38:26.110Z,8.80
2022-08-02T04:39:26.122Z,9.40
2022-08-02T04:40:26.121Z,12.90
2022-08-02T04:41:26.093Z,8.00
2022-08-02T04:42:26.078Z,7.40
2022-08-02T04:43:26.083Z,7.20
2022-08-02T04:44:26.052Z,7.80
2022-08-02T04:45:26.053Z,8.00
2022-08-02T04:46:26.042Z,8.30
2022-08-02T04:48:01.873Z,8.30
2022-08-02T04:48:26.034Z,9.60
2022-08-02T04:49:26.057Z,7.50
2022-08-02T04:50:25.978Z,7.30
2022-08-02T04:51:38.686Z,8.50
2022-08-02T04:52:25.984Z,9.30
2022-08-02T04:53:25.966Z,8.30
2022-08-02T04:54:25.966Z,6.80
2022-08-02T04:55:25.949Z,9.70
2022-08-02T04:56:25.933Z,11.60
2022-08-02T04:57:25.918Z,8.40
2022-08-02T04:58:41.269Z,12.90
2022-08-02T04:59:25.932Z,9.60
2022-08-02T05:00:25.983Z,11.10
2022-08-02T05:01:25.871Z,9.90
2022-08-02T05:02:25.895Z,7.30
2022-08-02T05:03:25.876Z,10.30
2022-08-02T05:04:25.860Z,9.80
2022-08-02T05:05:25.854Z,11.60
2022-08-02T05:06:25.839Z,11.60
2022-08-02T05:07:25.820Z,14.20
2022-08-02T05:08:25.832Z,11.10
2022-08-02T05:09:25.815Z,11.80
2022-08-02T05:10:25.791Z,12.40
2022-08-02T05:11:36.019Z,9.30
2022-08-02T05:12:25.792Z,7.20
2022-08-02T05:13:25.750Z,7.20
2022-08-02T05:14:25.759Z,10.80
2022-08-02T05:15:28.281Z,13.20
2022-08-02T05:16:31.732Z,11.40
2022-08-02T05:17:25.735Z,10.20
2022-08-02T05:18:25.703Z,11.00
2022-08-02T05:19:25.734Z,9.40
2022-08-02T05:20:25.721Z,11.30
2022-08-02T05:21:25.667Z,10.80
2022-08-02T05:22:25.680Z,12.70
2022-08-02T05:23:25.654Z,9.80
2022-08-02T05:24:25.649Z,12.60
2022-08-02T05:25:25.672Z,11.50
2022-08-02T05:26:25.648Z,11.60
2022-08-02T05:27:25.613Z,18.80
2022-08-02T05:28:25.621Z,10.30
2022-08-02T05:29:25.584Z,11.60
2022-08-02T05:30:25.588Z,22.00
2022-08-02T05:31:25.595Z,21.50
2022-08-02T05:32:26.037Z,27.60
2022-08-02T05:33:25.561Z,22.00
2022-08-02T05:34:25.564Z,16.70
2022-08-02T05:35:25.516Z,18.30
2022-08-02T05:36:25.524Z,13.30
2022-08-02T05:37:25.518Z,13.50
2022-08-02T05:38:26.198Z,11.70
2022-08-02T05:39:25.488Z,14.10
2022-08-02T05:40:26.228Z,11.20
2022-08-02T05:41:25.483Z,14.10
2022-08-02T05:42:25.466Z,11.40
2022-08-02T05:43:25.501Z,16.70
2022-08-02T05:44:25.451Z,17.60
2022-08-02T05:45:25.427Z,16.10
2022-08-02T05:46:25.439Z,14.00
2022-08-02T05:47:25.401Z,11.80
2022-08-02T05:48:30.869Z,13.00
2022-08-02T05:49:25.474Z,13.70
2022-08-02T05:50:25.395Z,21.50
2022-08-02T05:51:25.361Z,18.90
2022-08-02T05:52:25.385Z,18.90
2022-08-02T05:53:25.352Z,22.00
2022-08-02T05:54:25.343Z,18.90
2022-08-02T05:55:25.317Z,22.80
2022-08-02T05:56:25.367Z,19.00
2022-08-02T05:57:25.331Z,21.30
2022-08-02T05:58:25.303Z,20.70
2022-08-02T05:59:25.273Z,20.60
2022-08-02T06:00:25.280Z,13.50
2022-08-02T06:01:25.307Z,18.90
2022-08-02T06:02:28.679Z,20.90
2022-08-02T06:03:25.250Z,17.00
2022-08-02T06:04:25.240Z,17.00
2022-08-02T06:05:25.219Z,16.00
2022-08-02T06:06:25.223Z,21.10
2022-08-02T06:07:25.571Z,16.60
2022-08-02T06:08:25.200Z,14.50
2022-08-02T06:09:26.892Z,15.60
2022-08-02T06:10:25.182Z,15.70
2022-08-02T06:11:25.180Z,13.30
2022-08-02T06:12:25.173Z,20.90
2022-08-02T06:13:25.148Z,18.10
2022-08-02T06:14:25.133Z,19.50
2022-08-02T06:15:25.126Z,17.80
2022-08-02T06:16:31.768Z,16.20
2022-08-02T06:17:25.135Z,17.20
2022-08-02T06:18:27.940Z,17.30
2022-08-02T06:19:25.108Z,16.20
2022-08-02T06:20:25.076Z,14.90
2022-08-02T06:22:34.713Z,13.70
2022-08-02T06:22:41.324Z,17.90
2022-08-02T06:23:25.036Z,17.00
2022-08-02T06:24:25.028Z,13.70
2022-08-02T06:25:50.728Z,15.90
2022-08-02T06:26:25.025Z,15.80
2022-08-02T06:27:25.012Z,14.40
2022-08-02T06:28:24.987Z,16.20
2022-08-02T06:29:24.973Z,17.10
2022-08-02T06:30:24.982Z,18.30
2022-08-02T06:31:24.953Z,16.00
2022-08-02T06:32:24.949Z,16.30
2022-08-02T06:33:24.943Z,18.90
2022-08-02T06:34:24.982Z,16.80
2022-08-02T06:35:24.918Z,19.40
2022-08-02T06:36:24.912Z,21.60
2022-08-02T06:37:24.896Z,16.50
2022-08-02T06:38:24.908Z,20.50
2022-08-02T06:39:24.866Z,15.70
2022-08-02T06:40:24.874Z,15.40
2022-08-02T06:41:24.850Z,16.00
2022-08-02T06:42:26.857Z,17.30
2022-08-02T06:43:24.838Z,18.60
2022-08-02T06:44:48.791Z,15.20
2022-08-02T06:45:24.806Z,15.70
2022-08-02T06:47:10.447Z,17.10
2022-08-02T06:47:24.796Z,15.90
2022-08-02T06:48:24.822Z,15.60
2022-08-02T06:49:24.799Z,15.80
2022-08-02T06:50:24.813Z,15.60
2022-08-02T06:51:24.766Z,14.40
2022-08-02T06:52:28.157Z,16.60
2022-08-02T06:53:24.722Z,15.80
2022-08-02T06:54:24.762Z,15.30
2022-08-02T06:55:24.721Z,14.30
2022-08-02T06:56:24.716Z,13.80
2022-08-02T06:57:24.678Z,14.30
2022-08-02T06:58:24.694Z,12.00
2022-08-02T06:59:24.667Z,19.20
2022-08-02T07:00:24.761Z,16.20
2022-08-02T07:01:24.687Z,12.00
2022-08-02T07:02:24.637Z,17.30
2022-08-02T07:03:24.623Z,11.40
2022-08-02T07:04:24.623Z,14.80
2022-08-02T07:05:24.602Z,14.90
2022-08-02T07:06:24.611Z,14.60
2022-08-02T07:07:24.583Z,14.50
2022-08-02T07:08:24.588Z,13.60
2022-08-02T07:09:24.558Z,11.70
2022-08-02T07:10:24.564Z,12.60
2022-08-02T07:11:24.540Z,13.50
2022-08-02T07:12:24.537Z,14.80
2022-08-02T07:13:24.531Z,14.80
2022-08-02T07:14:24.510Z,14.80
2022-08-02T07:15:24.541Z,12.70
2022-08-02T07:16:24.498Z,13.70
2022-08-02T07:17:24.474Z,15.20
2022-08-02T07:18:24.516Z,13.10
2022-08-02T07:19:28.560Z,12.10
2022-08-02T07:20:24.471Z,11.30
2022-08-02T07:21:55.909Z,13.60
2022-08-02T07:22:24.671Z,15.30
2022-08-02T07:23:24.424Z,12.40
2022-08-02T07:24:24.417Z,12.70
2022-08-02T07:25:24.406Z,14.60
2022-08-02T07:26:24.395Z,12.00
2022-08-02T07:27:24.409Z,11.60
2022-08-02T07:28:24.916Z,12.40
2022-08-02T07:29:24.347Z,11.70
2022-08-02T07:30:24.381Z,13.70
2022-08-02T07:31:24.336Z,12.50
2022-08-02T07:32:24.332Z,15.70
2022-08-02T07:33:38.687Z,14.10
2022-08-02T07:34:24.316Z,11.20
2022-08-02T07:35:24.306Z,11.20
2022-08-02T07:36:24.301Z,10.10
2022-08-02T07:37:54.140Z,13.10
2022-08-02T07:38:24.308Z,16.80
2022-08-02T07:39:24.243Z,11.60
2022-08-02T07:40:24.341Z,14.40
2022-08-02T07:41:24.229Z,12.20
2022-08-02T07:42:24.237Z,12.80
2022-08-02T07:43:24.219Z,11.60
2022-08-02T07:44:24.216Z,13.00
2022-08-02T07:45:24.214Z,12.90
2022-08-02T07:46:24.222Z,14.00
2022-08-02T07:47:24.187Z,14.00
2022-08-02T07:48:24.176Z,10.60
2022-08-02T07:49:24.233Z,9.10
2022-08-02T07:50:24.281Z,10.80
2022-08-02T07:51:24.127Z,11.50
2022-08-02T07:52:24.128Z,15.90
2022-08-02T07:53:50.004Z,11.80
2022-08-02T07:54:24.121Z,9.70
2022-08-02T07:55:24.088Z,10.60
2022-08-02T07:56:24.108Z,9.40
2022-08-02T07:57:24.078Z,13.40
2022-08-02T07:58:24.074Z,9.80
2022-08-02T07:59:24.071Z,13.50
2022-08-02T08:00:24.053Z,10.20
2022-08-02T08:01:24.093Z,12.50
2022-08-02T08:02:24.027Z,10.80
2022-08-02T08:03:24.018Z,11.70
2022-08-02T08:04:24.025Z,12.40
2022-08-02T08:05:24.011Z,12.90
2022-08-02T08:06:28.524Z,10.50
2022-08-02T08:07:23.969Z,8.40
2022-08-02T08:08:23.993Z,10.10
2022-08-02T08:09:23.950Z,13.30
2022-08-02T08:10:23.974Z,7.80
2022-08-02T08:11:23.935Z,11.60
2022-08-02T08:12:23.935Z,9.30
2022-08-02T08:13:23.957Z,7.80
2022-08-02T08:14:23.930Z,11.70
2022-08-02T08:15:23.921Z,11.30
2022-08-02T08:16:23.891Z,9.30
2022-08-02T08:17:23.865Z,9.00
2022-08-02T08:18:23.870Z,13.10
2022-08-02T08:19:50.508Z,10.80
2022-08-02T08:20:23.847Z,10.50
2022-08-02T08:21:23.826Z,9.90
2022-08-02T08:22:23.829Z,9.50
2022-08-02T08:23:23.799Z,10.40
2022-08-02T08:24:23.803Z,7.80
2022-08-02T08:25:23.790Z,10.10
2022-08-02T08:26:23.794Z,7.70
2022-08-02T08:27:23.963Z,9.30
2022-08-02T08:28:23.831Z,12.90
2022-08-02T08:29:23.738Z,11.20
2022-08-02T08:30:23.742Z,9.30
2022-08-02T08:31:23.723Z,9.30
2022-08-02T08:32:24.239Z,11.40
2022-08-02T08:33:23.723Z,8.50
2022-08-02T08:34:23.724Z,9.70
2022-08-02T08:35:23.684Z,7.70
2022-08-02T08:36:23.693Z,9.70
2022-08-02T08:37:23.684Z,6.60
2022-08-02T08:38:23.676Z,6.90
2022-08-02T08:39:23.661Z,8.30
2022-08-02T08:40:23.660Z,7.90
2022-08-02T08:41:23.619Z,8.60
2022-08-02T08:42:23.623Z,7.20
2022-08-02T08:43:23.611Z,9.40
2022-08-02T08:44:23.590Z,7.60
2022-08-02T08:45:23.584Z,8.30
2022-08-02T08:46:23.601Z,9.00
2022-08-02T08:47:23.572Z,7.50
2022-08-02T08:48:30.965Z,8.00
2022-08-02T08:49:23.628Z,8.80
2022-08-02T08:50:25.367Z,9.60
2022-08-02T08:51:23.511Z,8.80
2022-08-02T08:52:23.517Z,6.90
2022-08-02T08:53:23.514Z,6.30
2022-08-02T08:54:23.505Z,7.50
2022-08-02T08:55:23.472Z,7.10
2022-08-02T08:56:23.489Z,6.10
2022-08-02T08:57:23.462Z,8.30
2022-08-02T08:58:23.489Z,7.90
2022-08-02T08:59:23.436Z,8.70
2022-08-02T09:00:23.435Z,8.10
2022-08-02T09:01:23.493Z,7.60
2022-08-02T09:02:27.692Z,9.70
2022-08-02T09:03:23.404Z,6.40
2022-08-02T09:04:23.421Z,6.90
2022-08-02T09:05:23.401Z,8.20
2022-08-02T09:06:23.394Z,5.80
2022-08-02T09:07:23.354Z,6.80
2022-08-02T09:08:23.358Z,5.00
2022-08-02T09:09:23.342Z,6.00
2022-08-02T09:10:23.342Z,4.50
2022-08-02T09:11:23.313Z,7.40
2022-08-02T09:12:23.312Z,9.20
2022-08-02T09:13:39.158Z,8.70
2022-08-02T09:14:23.306Z,7.80
2022-08-02T09:15:23.286Z,6.70
2022-08-02T09:16:23.263Z,5.60
2022-08-02T09:17:23.261Z,7.00
2022-08-02T09:18:23.278Z,5.10
2022-08-02T09:19:23.284Z,5.60
2022-08-02T09:20:24.536Z,10.50
2022-08-02T09:21:23.253Z,6.10
2022-08-02T09:22:23.193Z,6.10
2022-08-02T09:23:23.247Z,5.80
2022-08-02T09:24:23.268Z,5.20
2022-08-02T09:25:23.182Z,6.00
2022-08-02T09:26:23.197Z,4.80
2022-08-02T09:27:23.185Z,5.90
2022-08-02T09:28:23.166Z,8.30
2022-08-02T09:29:23.150Z,8.90
2022-08-02T09:30:23.127Z,5.80
2022-08-02T09:31:23.128Z,4.60
2022-08-02T09:32:23.116Z,6.00
2022-08-02T09:33:23.094Z,7.20
2022-08-02T09:34:23.094Z,5.10
2022-08-02T09:35:23.083Z,4.40
2022-08-02T09:36:23.072Z,5.70
2022-08-02T09:37:23.066Z,3.60
2022-08-02T09:38:23.050Z,5.90
2022-08-02T09:39:23.047Z,7.60
2022-08-02T09:40:23.028Z,7.00
2022-08-02T09:41:23.066Z,8.50
2022-08-02T09:42:23.003Z,6.80
2022-08-02T09:43:23.018Z,6.00
2022-08-02T09:44:23.012Z,5.70
2022-08-02T09:45:22.971Z,7.30
2022-08-02T09:46:24.293Z,5.30
2022-08-02T09:47:22.963Z,5.20
2022-08-02T09:48:22.977Z,4.50
2022-08-02T09:49:23.022Z,4.00
2022-08-02T09:50:22.952Z,5.00
2022-08-02T09:51:22.933Z,4.50
2022-08-02T09:52:22.899Z,6.30
2022-08-02T09:53:22.925Z,7.50
2022-08-02T09:54:22.880Z,7.30
2022-08-02T09:55:22.903Z,7.10
2022-08-02T09:56:35.411Z,5.70
2022-08-02T09:57:22.869Z,5.50
2022-08-02T09:58:22.845Z,5.40
2022-08-02T09:59:22.842Z,5.40
2022-08-02T10:00:50.422Z,5.30
2022-08-02T10:01:30.139Z,6.00
2022-08-02T10:02:23.073Z,6.00
2022-08-02T10:03:23.023Z,6.70
2022-08-02T10:04:24.667Z,8.50
2022-08-02T10:05:22.823Z,6.10
2022-08-02T10:06:22.765Z,6.70
2022-08-02T10:07:22.948Z,6.30
2022-08-02T10:08:22.748Z,7.00
2022-08-02T10:09:22.764Z,8.60
2022-08-02T10:10:22.721Z,7.30
2022-08-02T10:11:22.749Z,9.00
2022-08-02T10:12:22.777Z,6.30
2022-08-02T10:13:22.711Z,8.40
2022-08-02T10:14:22.706Z,6.80
2022-08-02T10:15:27.252Z,6.20
2022-08-02T10:16:22.665Z,5.30
2022-08-02T10:17:22.670Z,6.00
2022-08-02T10:18:37.632Z,6.90
2022-08-02T10:20:02.256Z,7.80
2022-08-02T10:20:22.633Z,6.90
2022-08-02T10:21:22.620Z,6.20
2022-08-02T10:22:22.601Z,7.20
2022-08-02T10:23:22.601Z,5.40
2022-08-02T10:24:22.626Z,9.90
2022-08-02T10:25:22.582Z,9.10
2022-08-02T10:26:22.575Z,7.10
2022-08-02T10:27:22.579Z,7.40
2022-08-02T10:28:22.540Z,8.90
2022-08-02T10:29:22.539Z,8.30
2022-08-02T10:30:22.534Z,9.80
2022-08-02T10:31:22.556Z,7.60
2022-08-02T10:32:22.501Z,8.90
2022-08-02T10:33:22.503Z,6.10
2022-08-02T10:34:22.524Z,8.60
2022-08-02T10:35:25.640Z,7.60
2022-08-02T10:36:22.457Z,8.90
2022-08-02T10:37:22.475Z,7.10
2022-08-02T10:38:22.443Z,7.40
2022-08-02T10:39:22.441Z,7.00
2022-08-02T10:40:22.425Z,8.70
2022-08-02T10:41:22.424Z,9.60
2022-08-02T10:42:22.415Z,8.20
2022-08-02T10:43:22.406Z,7.50
2022-08-02T10:44:24.735Z,8.20
2022-08-02T10:45:22.463Z,9.20
2022-08-02T10:46:22.386Z,8.70
2022-08-02T10:47:22.354Z,7.10
2022-08-02T10:48:22.366Z,8.80
2022-08-02T10:49:39.770Z,8.40
2022-08-02T10:50:22.326Z,8.90
2022-08-02T10:51:24.494Z,6.20
2022-08-02T10:52:22.312Z,6.70
2022-08-02T10:53:22.306Z,8.00
2022-08-02T10:54:22.314Z,7.60
2022-08-02T10:55:23.003Z,8.00
2022-08-02T10:56:22.291Z,8.40
2022-08-02T10:57:22.267Z,12.60
2022-08-02T10:58:26.100Z,8.80
2022-08-02T10:59:22.283Z,9.40
2022-08-02T11:00:22.225Z,6.60
2022-08-02T11:01:22.380Z,6.40
2022-08-02T11:02:22.195Z,10.20
2022-08-02T11:03:22.213Z,8.00
2022-08-02T11:04:22.212Z,8.80
2022-08-02T11:05:22.175Z,7.70
2022-08-02T11:06:25.060Z,8.70
2022-08-02T11:07:22.178Z,10.20
2022-08-02T11:08:22.169Z,10.10
2022-08-02T11:09:22.163Z,6.80
2022-08-02T11:10:22.132Z,8.10
2022-08-02T11:11:26.149Z,9.40
2022-08-02T11:12:22.105Z,7.40
2022-08-02T11:13:22.101Z,8.00
2022-08-02T11:14:22.095Z,7.00
2022-08-02T11:15:22.094Z,8.20
2022-08-02T11:16:22.082Z,7.90
2022-08-02T11:17:22.076Z,5.70
2022-08-02T11:18:22.053Z,8.30
2022-08-02T11:19:22.041Z,7.70
2022-08-02T11:20:22.062Z,7.70
2022-08-02T11:21:22.031Z,7.30
2022-08-02T11:22:25.628Z,7.90
2022-08-02T11:23:22.002Z,7.00
2022-08-02T11:24:21.993Z,7.00
2022-08-02T11:25:21.994Z,7.10
2022-08-02T11:26:21.956Z,8.60
2022-08-02T11:27:22.333Z,7.70
2022-08-02T11:28:25.082Z,8.90
2022-08-02T11:29:21.956Z,8.50
2022-08-02T11:30:26.409Z,5.60
2022-08-02T11:31:21.928Z,5.70
2022-08-02T11:32:21.921Z,6.90
2022-08-02T11:33:21.912Z,11.40
2022-08-02T11:34:36.912Z,6.50
2022-08-02T11:35:21.897Z,4.70
2022-08-02T11:36:22.923Z,8.20
2022-08-02T11:37:21.860Z,8.20
2022-08-02T11:38:21.865Z,8.70
2022-08-02T11:39:21.850Z,8.70
2022-08-02T11:40:21.850Z,6.50
2022-08-02T11:41:46.294Z,6.70
2022-08-02T11:42:21.813Z,6.90
2022-08-02T11:43:21.798Z,6.00
2022-08-02T11:44:23.435Z,5.70
2022-08-02T11:45:23.511Z,6.50
2022-08-02T11:46:21.770Z,6.90
2022-08-02T11:47:21.762Z,5.70
2022-08-02T11:48:21.747Z,4.00
2022-08-02T11:49:21.821Z,7.10
2022-08-02T11:50:29.506Z,7.20
2022-08-02T11:51:21.743Z,5.90
2022-08-02T11:52:21.712Z,6.20
2022-08-02T11:53:21.718Z,6.00
2022-08-02T11:54:21.693Z,5.90
2022-08-02T11:55:21.682Z,5.70
2022-08-02T11:56:25.348Z,4.40
2022-08-02T11:57:21.700Z,5.50
2022-08-02T11:58:21.644Z,5.80
2022-08-02T11:59:21.638Z,4.50
2022-08-02T12:00:21.626Z,4.30
2022-08-02T12:01:21.624Z,5.50
2022-08-02T12:02:21.634Z,3.40
2022-08-02T12:03:21.656Z,5.10
2022-08-02T12:04:22.469Z,5.10
2022-08-02T12:05:24.704Z,5.90
2022-08-02T12:06:21.571Z,4.70
2022-08-02T12:07:34.665Z,4.00
2022-08-02T12:08:22.192Z,4.50
2022-08-02T12:09:21.548Z,3.60
2022-08-02T12:10:21.532Z,6.00
2022-08-02T12:11:21.522Z,6.30
2022-08-02T12:12:21.510Z,7.20
2022-08-02T12:13:21.520Z,5.30
2022-08-02T12:14:21.488Z,6.80
2022-08-02T12:15:21.492Z,5.60
2022-08-02T12:16:21.471Z,3.90
2022-08-02T12:17:21.469Z,5.00
2022-08-02T12:18:21.461Z,6.30
2022-08-02T12:19:21.444Z,5.20
2022-08-02T12:20:21.419Z,3.90
2022-08-02T12:21:21.432Z,8.30
2022-08-02T12:22:24.470Z,6.90
2022-08-02T12:23:21.434Z,8.00
2022-08-02T12:24:21.384Z,6.30
2022-08-02T12:25:33.575Z,4.90
2022-08-02T12:26:21.365Z,5.40
2022-08-02T12:27:21.385Z,7.40
2022-08-02T12:28:21.369Z,6.10
2022-08-02T12:29:57.712Z,3.10
2022-08-02T12:30:27.698Z,5.20
2022-08-02T12:31:21.342Z,3.70
2022-08-02T12:32:21.317Z,4.70
2022-08-02T12:33:21.312Z,5.80
2022-08-02T12:34:21.294Z,5.40
2022-08-02T12:35:26.800Z,3.70
2022-08-02T12:36:21.294Z,5.70
2022-08-02T12:37:21.260Z,6.60
2022-08-02T12:38:21.252Z,7.70
2022-08-02T12:39:21.255Z,5.80
2022-08-02T12:40:25.378Z,7.70
2022-08-02T12:41:31.147Z,6.10
2022-08-02T12:42:21.246Z,6.50
2022-08-02T12:43:21.226Z,5.00
2022-08-02T12:44:21.205Z,4.60
2022-08-02T12:45:21.215Z,4.00
2022-08-02T12:46:21.169Z,5.80
2022-08-02T12:47:21.463Z,8.90
2022-08-02T12:48:21.266Z,4.80
2022-08-02T12:49:21.229Z,6.70
2022-08-02T12:50:21.134Z,4.60
2022-08-02T12:51:21.155Z,10.30
2022-08-02T12:52:21.122Z,7.10
2022-08-02T12:53:21.135Z,5.90
2022-08-02T12:54:28.639Z,6.00
2022-08-02T12:55:21.099Z,4.20
2022-08-02T12:56:21.520Z,6.30
2022-08-02T12:57:21.084Z,6.20
2022-08-02T12:58:21.051Z,5.00
2022-08-02T12:59:21.059Z,5.50
2022-08-02T13:00:21.042Z,2.90
2022-08-02T13:01:21.094Z,6.90
2022-08-02T13:02:21.641Z,7.00
2022-08-02T13:04:11.362Z,4.10
2022-08-02T13:04:20.993Z,3.70
2022-08-02T13:05:21.008Z,5.40
2022-08-02T13:06:42.086Z,5.00
2022-08-02T13:07:20.978Z,5.00
2022-08-02T13:08:20.946Z,7.90